createdAt,value
2024-04-19T00:00:54.817Z,8.90
2024-04-19T00:03:22.664Z,6.15
2024-04-19T00:05:50.567Z,6.82
2024-04-19T00:08:34.505Z,7.40
2024-04-19T00:11:02.176Z,9.40
2024-04-19T00:13:29.680Z,5.55
2024-04-19T00:16:00.443Z,5.57
2024-04-19T00:18:28.687Z,4.35
2024-04-19T00:20:57.804Z,5.93
2024-04-19T00:23:25.590Z,7.18
2024-04-19T00:25:55.038Z,6.35
2024-04-19T00:28:40.576Z,8.45
2024-04-19T00:31:08.280Z,5.35
2024-04-19T00:33:37.062Z,6.35
2024-04-19T00:36:05.165Z,6.47
2024-04-19T00:38:32.789Z,9.02
2024-04-19T00:41:00.181Z,5.75
2024-04-19T00:43:27.586Z,3.15
2024-04-19T00:45:55.182Z,3.47
2024-04-19T00:48:23.659Z,4.95
2024-04-19T00:51:04.696Z,6.00
2024-04-19T00:53:35.650Z,7.88
2024-04-19T00:56:22.964Z,4.88
2024-04-19T00:58:51.638Z,5.88
2024-04-19T01:01:19.875Z,4.55
2024-04-19T01:03:48.976Z,4.00
2024-04-19T01:06:16.420Z,4.78
2024-04-19T01:08:44.242Z,7.30
2024-04-19T01:11:29.726Z,9.95
2024-04-19T01:13:57.673Z,8.15
2024-04-19T01:16:25.565Z,9.38
2024-04-19T01:18:53.100Z,9.75
2024-04-19T01:21:23.224Z,8.02
2024-04-19T01:23:59.034Z,8.73
2024-04-19T01:26:26.512Z,7.82
2024-04-19T01:28:53.812Z,6.68
2024-04-19T01:31:21.384Z,7.97
2024-04-19T01:33:48.726Z,6.97
2024-04-19T01:36:16.247Z,7.43
2024-04-19T01:38:49.612Z,8.23
2024-04-19T01:41:17.018Z,7.60
2024-04-19T01:43:44.879Z,7.43
2024-04-19T01:46:12.422Z,6.32
2024-04-19T01:48:39.875Z,8.50
2024-04-19T01:51:07.361Z,4.43
2024-04-19T01:53:34.697Z,6.07
2024-04-19T01:56:02.179Z,3.35
2024-04-19T01:58:41.835Z,7.47
2024-04-19T02:01:09.455Z,5.93
2024-04-19T02:03:39.805Z,8.38
2024-04-19T02:06:12.924Z,5.88
2024-04-19T02:08:40.670Z,6.47
2024-04-19T02:11:08.472Z,4.10
2024-04-19T02:13:36.005Z,6.03
2024-04-19T02:16:03.465Z,5.60
2024-04-19T02:18:30.982Z,5.72
2024-04-19T02:20:58.424Z,6.07
2024-04-19T02:23:46.776Z,4.93
2024-04-19T02:26:14.239Z,5.70
2024-04-19T02:29:00.495Z,8.50
2024-04-19T02:31:28.257Z,6.57
2024-04-19T02:33:55.807Z,8.60
2024-04-19T02:36:23.386Z,7.50
2024-04-19T02:38:50.948Z,8.43
2024-04-19T02:41:18.439Z,9.13
2024-04-19T02:43:47.582Z,7.43
2024-04-19T02:46:16.408Z,10.48
2024-04-19T02:48:44.074Z,10.30
2024-04-19T02:51:11.730Z,9.27
2024-04-19T02:53:39.066Z,12.10
2024-04-19T02:56:08.639Z,9.02
2024-04-19T02:58:36.440Z,6.85
2024-04-19T03:01:04.027Z,4.20
2024-04-19T03:03:31.778Z,7.22
2024-04-19T03:05:59.262Z,2.97
2024-04-19T03:08:27.980Z,4.80
2024-04-19T03:10:55.495Z,5.68
2024-04-19T03:13:22.835Z,4.88
2024-04-19T03:15:50.374Z,5.95
2024-04-19T03:18:36.397Z,4.43
2024-04-19T03:21:04.513Z,8.43
2024-04-19T03:23:31.906Z,7.53
2024-04-19T03:26:01.207Z,4.32
2024-04-19T03:28:29.389Z,5.35
2024-04-19T03:30:56.868Z,4.57
2024-04-19T03:33:24.352Z,4.03
2024-04-19T03:35:51.911Z,3.90
2024-04-19T03:38:19.916Z,6.70
2024-04-19T03:40:57.004Z,4.82
2024-04-19T03:43:33.615Z,5.18
2024-04-19T03:46:04.171Z,12.00
2024-04-19T03:48:31.632Z,5.35
2024-04-19T03:50:58.981Z,3.40
2024-04-19T03:53:26.432Z,4.90
2024-04-19T03:55:53.778Z,6.38
2024-04-19T03:58:21.220Z,5.43
2024-04-19T04:00:48.922Z,6.57
2024-04-19T04:03:16.489Z,4.03
2024-04-19T04:05:50.654Z,4.20
2024-04-19T04:08:18.063Z,4.88
2024-04-19T04:10:45.898Z,7.95
2024-04-19T04:13:13.319Z,4.55
2024-04-19T04:15:42.633Z,9.18
2024-04-19T04:18:10.140Z,7.85
2024-04-19T04:20:37.786Z,4.03
2024-04-19T04:23:05.183Z,4.93
2024-04-19T04:25:35.169Z,5.72
2024-04-19T04:28:03.665Z,3.08
2024-04-19T04:30:31.024Z,8.57
2024-04-19T04:32:58.476Z,5.90
2024-04-19T04:35:25.918Z,7.60
2024-04-19T04:37:53.356Z,6.65
2024-04-19T04:40:20.699Z,5.95
2024-04-19T04:42:48.189Z,5.45
2024-04-19T04:45:15.707Z,8.80
2024-04-19T04:47:43.292Z,6.13
2024-04-19T04:50:11.957Z,4.63
2024-04-19T04:52:39.414Z,5.05
2024-04-19T04:55:07.704Z,6.22
2024-04-19T04:57:38.261Z,8.70
2024-04-19T05:00:08.332Z,5.65
2024-04-19T05:02:36.477Z,8.18
2024-04-19T05:05:03.990Z,10.18
2024-04-19T05:07:31.305Z,13.68
2024-04-19T05:09:58.874Z,7.78
2024-04-19T05:12:26.257Z,9.18
2024-04-19T05:14:53.743Z,12.48
2024-04-19T05:17:21.106Z,7.93
2024-04-19T05:19:48.536Z,7.07
2024-04-19T05:22:15.944Z,8.68
2024-04-19T05:24:47.297Z,9.27
2024-04-19T05:27:14.852Z,7.65
2024-04-19T05:29:42.241Z,7.72
2024-04-19T05:32:09.716Z,5.35
2024-04-19T05:34:37.385Z,7.35
2024-04-19T05:37:05.247Z,4.72
2024-04-19T05:39:32.671Z,8.15
2024-04-19T05:42:00.094Z,7.63
2024-04-19T05:44:33.070Z,6.97
2024-04-19T05:47:00.907Z,10.40
2024-04-19T05:49:29.025Z,10.73
2024-04-19T05:51:56.935Z,6.90
2024-04-19T05:54:25.425Z,8.68
2024-04-19T05:56:52.873Z,7.43
2024-04-19T05:59:20.804Z,8.25
2024-04-19T06:01:48.308Z,6.35
2024-04-19T06:04:16.132Z,13.52
2024-04-19T06:06:43.546Z,12.50
2024-04-19T06:09:10.979Z,6.82
2024-04-19T06:11:38.338Z,10.82
2024-04-19T06:14:05.758Z,8.68
2024-04-19T06:16:33.378Z,6.50
2024-04-19T06:19:00.899Z,14.68
2024-04-19T06:21:29.198Z,8.55
2024-04-19T06:23:56.559Z,8.32
2024-04-19T06:26:23.983Z,8.60
2024-04-19T06:28:51.356Z,7.25
2024-04-19T06:31:21.635Z,8.15
2024-04-19T06:33:49.769Z,7.28
2024-04-19T06:36:17.162Z,9.82
2024-04-19T06:38:44.744Z,6.20
2024-04-19T06:41:12.160Z,12.15
2024-04-19T06:43:39.767Z,19.08
2024-04-19T06:46:07.938Z,11.02
2024-04-19T06:48:35.627Z,13.10
2024-04-19T06:51:03.442Z,3.53
2024-04-19T06:53:30.935Z,10.60
2024-04-19T06:55:58.457Z,7.80
2024-04-19T06:58:25.746Z,4.85
2024-04-19T07:01:06.312Z,17.63
2024-04-19T07:03:41.406Z,4.43
2024-04-19T07:06:19.980Z,5.45
2024-04-19T07:08:55.055Z,6.55
2024-04-19T07:11:22.708Z,8.20
2024-04-19T07:13:50.254Z,5.70
2024-04-19T07:16:17.773Z,9.27
2024-04-19T07:18:48.594Z,7.97
2024-04-19T07:21:16.226Z,5.72
2024-04-19T07:23:43.695Z,8.85
2024-04-19T07:26:11.150Z,13.95
2024-04-19T07:28:38.479Z,6.00
2024-04-19T07:31:05.938Z,7.20
2024-04-19T07:33:33.350Z,11.05
2024-04-19T07:36:00.859Z,12.20
2024-04-19T07:38:28.414Z,5.25
2024-04-19T07:40:55.847Z,7.72
2024-04-19T07:43:23.474Z,4.00
2024-04-19T07:45:51.049Z,5.80
2024-04-19T07:48:18.831Z,8.00
2024-04-19T07:50:47.332Z,2.83
2024-04-19T07:53:19.928Z,5.78
2024-04-19T07:55:47.625Z,4.45
2024-04-19T07:58:15.285Z,10.27
2024-04-19T08:00:43.009Z,5.88
2024-04-19T08:03:10.660Z,10.80
2024-04-19T08:05:37.990Z,12.10
2024-04-19T08:08:05.846Z,7.97
2024-04-19T08:10:34.800Z,3.83
2024-04-19T08:13:03.085Z,8.20
2024-04-19T08:15:30.510Z,11.15
2024-04-19T08:17:57.976Z,6.63
2024-04-19T08:20:25.467Z,4.40
2024-04-19T08:22:53.088Z,4.45
2024-04-19T08:25:20.466Z,1.60
2024-04-19T08:27:47.920Z,3.00
2024-04-19T08:30:15.459Z,4.25
2024-04-19T08:32:43.088Z,3.42
2024-04-19T08:35:10.832Z,4.22
2024-04-19T08:37:38.815Z,5.68
2024-04-19T08:40:07.215Z,3.33
2024-04-19T08:42:34.779Z,1.98
2024-04-19T08:45:05.743Z,6.05
2024-04-19T08:47:36.692Z,4.38
2024-04-19T08:50:04.688Z,4.10
2024-04-19T08:52:50.749Z,8.20
2024-04-19T08:55:20.777Z,13.40
2024-04-19T08:57:48.334Z,15.98
2024-04-19T09:00:17.134Z,5.07
2024-04-19T09:02:46.068Z,6.18
2024-04-19T09:05:13.470Z,7.53
2024-04-19T09:07:41.633Z,5.88
2024-04-19T09:10:14.745Z,34.38
2024-04-19T09:12:42.258Z,53.28
2024-04-19T09:15:09.593Z,108.38
2024-04-19T09:17:37.396Z,75.05
2024-04-19T09:20:06.869Z,47.13
2024-04-19T09:22:34.316Z,6.78
2024-04-19T09:25:01.775Z,15.50
2024-04-19T09:27:31.049Z,9.20
2024-04-19T09:30:00.572Z,12.32
2024-04-19T09:32:30.312Z,9.73
2024-04-19T09:34:57.775Z,24.70
2024-04-19T09:37:27.864Z,10.18
2024-04-19T09:39:55.555Z,5.28
2024-04-19T09:42:24.686Z,13.02
2024-04-19T09:44:53.912Z,10.43
2024-04-19T09:47:24.603Z,15.50
2024-04-19T09:49:57.691Z,18.42
2024-04-19T09:52:26.809Z,17.45
2024-04-19T09:55:10.158Z,9.60
2024-04-19T09:57:39.214Z,29.10
2024-04-19T10:00:07.783Z,14.30
2024-04-19T10:02:43.948Z,23.13
2024-04-19T10:05:13.175Z,29.52
2024-04-19T10:07:42.883Z,12.75
2024-04-19T10:10:10.411Z,6.25
2024-04-19T10:12:40.860Z,8.73
2024-04-19T10:15:13.799Z,20.83
2024-04-19T10:17:41.434Z,11.55
2024-04-19T10:20:12.478Z,9.55
2024-04-19T10:22:43.606Z,4.93
2024-04-19T10:25:11.160Z,11.57
2024-04-19T10:27:39.434Z,17.27
2024-04-19T10:30:15.806Z,10.70
2024-04-19T10:32:56.320Z,18.15
2024-04-19T10:35:23.920Z,10.23
2024-04-19T10:37:52.297Z,23.70
2024-04-19T10:40:21.389Z,8.43
2024-04-19T10:42:48.802Z,15.32
2024-04-19T10:45:16.308Z,21.13
2024-04-19T10:47:44.759Z,18.95
2024-04-19T10:50:12.388Z,51.63
2024-04-19T10:52:39.977Z,31.15
2024-04-19T10:55:07.931Z,12.15
2024-04-19T10:57:35.394Z,6.72
2024-04-19T11:00:02.804Z,10.07
2024-04-19T11:02:31.327Z,6.72
2024-04-19T11:04:59.150Z,20.45
2024-04-19T11:07:26.588Z,36.35
2024-04-19T11:09:57.780Z,102.63
2024-04-19T11:12:27.154Z,24.63
2024-04-19T11:14:54.683Z,55.67
2024-04-19T11:17:22.113Z,21.30
2024-04-19T11:19:49.652Z,19.30
2024-04-19T11:22:18.181Z,37.83
2024-04-19T11:24:45.846Z,33.80
2024-04-19T11:27:13.710Z,42.47
2024-04-19T11:29:41.989Z,22.75
2024-04-19T11:32:09.852Z,6.57
2024-04-19T11:34:39.544Z,9.35
2024-04-19T11:37:08.337Z,13.38
2024-04-19T11:39:36.035Z,11.98
2024-04-19T11:42:10.729Z,81.35
2024-04-19T11:44:41.834Z,50.95
2024-04-19T11:47:09.760Z,32.37
2024-04-19T11:49:37.325Z,13.13
2024-04-19T11:52:05.976Z,8.73
2024-04-19T11:54:35.868Z,3.67
2024-04-19T11:57:03.756Z,4.07
2024-04-19T11:59:31.380Z,1.90
2024-04-19T12:02:00.093Z,3.83
2024-04-19T12:04:27.830Z,8.15
2024-04-19T12:06:55.967Z,41.60
2024-04-19T12:09:23.499Z,6.63
2024-04-19T12:12:32.737Z,6.40
2024-04-19T12:15:33.648Z,9.65
2024-04-19T12:17:31.583Z,4.38
2024-04-19T12:20:04.747Z,3.03
2024-04-19T12:22:45.656Z,8.77
2024-04-19T12:25:18.199Z,2.72
2024-04-19T12:27:45.997Z,5.43
2024-04-19T12:30:13.659Z,17.73
2024-04-19T12:32:42.701Z,3.42
2024-04-19T12:35:14.346Z,8.95
2024-04-19T12:37:41.849Z,12.38
2024-04-19T12:40:09.775Z,4.72
2024-04-19T12:42:37.456Z,16.05
2024-04-19T12:45:05.896Z,5.10
2024-04-19T12:47:33.545Z,31.25
2024-04-19T12:50:00.866Z,105.63
2024-04-19T12:52:28.557Z,4.70
2024-04-19T12:54:58.363Z,4.57
2024-04-19T12:57:28.417Z,6.93
2024-04-19T12:59:56.134Z,4.60
2024-04-19T13:02:26.040Z,2.60
2024-04-19T13:04:54.998Z,2.88
2024-04-19T13:07:24.818Z,8.40
2024-04-19T13:09:54.538Z,2.92
2024-04-19T13:12:25.507Z,8.05
2024-04-19T13:14:53.130Z,7.63
2024-04-19T13:17:20.685Z,18.85
2024-04-19T13:19:48.368Z,13.15
2024-04-19T13:22:15.728Z,7.55
2024-04-19T13:24:49.802Z,17.05
2024-04-19T13:27:18.945Z,14.18
2024-04-19T13:29:47.519Z,11.68
2024-04-19T13:32:15.082Z,6.72
2024-04-19T13:34:48.266Z,28.52
2024-04-19T13:37:18.340Z,13.52
2024-04-19T13:39:46.246Z,2.38
2024-04-19T13:42:13.615Z,1.42
2024-04-19T13:44:41.256Z,9.60
2024-04-19T13:47:22.124Z,3.80
2024-04-19T13:49:50.705Z,4.18
2024-04-19T13:52:18.119Z,3.25
2024-04-19T13:54:47.580Z,1.95
2024-04-19T13:57:18.781Z,2.65
2024-04-19T13:59:46.542Z,3.65
2024-04-19T14:04:58.074Z,1.20
2024-04-19T14:07:25.742Z,2.78
2024-04-19T14:09:53.136Z,2.22
2024-04-19T14:12:22.455Z,2.55
2024-04-19T14:14:50.072Z,2.63
2024-04-19T14:17:21.394Z,3.50
2024-04-19T14:19:50.392Z,1.83
2024-04-19T14:22:23.424Z,2.50
2024-04-19T14:24:54.979Z,2.10
2024-04-19T14:27:24.384Z,3.15
2024-04-19T14:29:54.780Z,3.78
2024-04-19T14:32:22.462Z,3.90
2024-04-19T14:34:49.857Z,2.53
2024-04-19T14:37:17.720Z,4.93
2024-04-19T14:39:45.396Z,1.70
2024-04-19T14:42:13.907Z,3.95
2024-04-19T14:44:45.950Z,3.08
2024-04-19T14:47:16.966Z,5.82
2024-04-19T14:49:44.815Z,6.07
2024-04-19T14:52:13.443Z,3.67
2024-04-19T14:54:47.839Z,7.70
2024-04-19T14:57:18.179Z,5.95
2024-04-19T14:59:48.019Z,8.07
2024-04-19T15:02:15.623Z,8.07
2024-04-19T15:04:43.284Z,1.88
2024-04-19T15:07:11.667Z,3.08
2024-04-19T15:09:39.243Z,4.63
2024-04-19T15:12:07.115Z,3.80
2024-04-19T15:14:34.507Z,3.38
2024-04-19T15:17:03.111Z,2.20
2024-04-19T15:19:33.440Z,4.47
2024-04-19T15:22:02.620Z,4.53
2024-04-19T15:24:31.106Z,3.75
2024-04-19T15:26:58.527Z,1.67
2024-04-19T15:29:25.970Z,1.58
2024-04-19T15:31:55.551Z,6.85
2024-04-19T15:34:41.078Z,6.32
2024-04-19T15:37:14.797Z,2.70
2024-04-19T15:39:42.388Z,2.35
2024-04-19T15:42:12.471Z,2.38
2024-04-19T15:44:47.465Z,2.35
2024-04-19T15:47:14.950Z,3.55
2024-04-19T15:49:44.142Z,4.32
2024-04-19T15:52:12.803Z,4.72
2024-04-19T15:54:40.145Z,3.70
2024-04-19T15:57:08.004Z,8.07
2024-04-19T15:59:37.334Z,14.30
2024-04-19T16:02:04.952Z,38.85
2024-04-19T16:04:32.447Z,5.97
2024-04-19T16:07:03.212Z,5.80
2024-04-19T16:09:30.790Z,4.70
2024-04-19T16:11:59.499Z,5.63
2024-04-19T16:14:30.272Z,3.35
2024-04-19T16:16:58.174Z,3.70
2024-04-19T16:19:34.521Z,1.65
2024-04-19T16:22:14.314Z,4.38
2024-04-19T16:24:46.360Z,5.00
2024-04-19T16:27:21.364Z,6.90
2024-04-19T16:29:50.811Z,24.48
2024-04-19T16:32:18.185Z,36.78
2024-04-19T16:34:45.820Z,77.82
2024-04-19T16:37:13.257Z,40.33
2024-04-19T16:39:43.750Z,7.10
2024-04-19T16:42:11.340Z,29.00
2024-04-19T16:44:39.302Z,18.88
2024-04-19T16:47:07.389Z,7.47
2024-04-19T16:49:35.868Z,3.65
2024-04-19T16:52:08.435Z,5.18
2024-04-19T16:54:45.163Z,4.50
2024-04-19T16:57:15.591Z,5.88
2024-04-19T16:59:43.022Z,5.03
2024-04-19T17:02:10.444Z,5.75
2024-04-19T17:04:43.973Z,6.85
2024-04-19T17:07:16.087Z,3.13
2024-04-19T17:09:46.936Z,3.92
2024-04-19T17:12:19.502Z,5.53
2024-04-19T17:14:50.178Z,5.25
2024-04-19T17:17:17.654Z,2.78
2024-04-19T17:19:46.318Z,4.95
2024-04-19T17:22:13.712Z,3.22
2024-04-19T17:24:41.254Z,5.60
2024-04-19T17:27:09.539Z,3.90
2024-04-19T17:29:37.104Z,5.35
2024-04-19T17:32:04.629Z,4.03
2024-04-19T17:34:34.662Z,2.90
2024-04-19T17:37:03.265Z,4.28
2024-04-19T17:39:30.613Z,1.98
2024-04-19T17:41:59.265Z,3.42
2024-04-19T17:44:31.291Z,8.63
2024-04-19T17:47:00.991Z,4.63
2024-04-19T17:49:29.814Z,4.35
2024-04-19T17:51:58.776Z,4.40
2024-04-19T17:54:26.667Z,3.78
2024-04-19T17:56:54.439Z,3.42
2024-04-19T17:59:21.794Z,3.28
2024-04-19T18:01:49.638Z,3.50
2024-04-19T18:04:17.919Z,4.47
2024-04-19T18:09:26.934Z,4.78
2024-04-19T18:11:56.404Z,5.53
2024-04-19T18:14:24.304Z,8.55
2024-04-19T18:16:53.024Z,5.60
2024-04-19T18:19:36.550Z,10.00
2024-04-19T18:22:06.152Z,2.78
2024-04-19T18:24:33.776Z,2.25
2024-04-19T18:27:01.724Z,29.92
2024-04-19T18:29:30.151Z,12.82
2024-04-19T18:32:00.116Z,15.27
2024-04-19T18:34:27.511Z,4.97
2024-04-19T18:36:54.924Z,3.22
2024-04-19T18:39:22.455Z,23.75
2024-04-19T18:41:50.057Z,21.33
2024-04-19T18:44:17.747Z,3.97
2024-04-19T18:46:45.019Z,5.00
2024-04-19T18:49:13.631Z,6.63
2024-04-19T18:51:41.682Z,9.55
2024-04-19T18:54:09.180Z,3.92
2024-04-19T18:56:36.660Z,4.68
2024-04-19T18:59:04.111Z,79.72
2024-04-19T19:01:32.490Z,34.53
2024-04-19T19:04:00.437Z,12.00
2024-04-19T19:06:29.331Z,9.63
2024-04-19T19:08:57.001Z,3.25
2024-04-19T19:11:25.942Z,4.85
2024-04-19T19:13:53.578Z,3.70
2024-04-19T19:16:32.492Z,7.13
2024-04-19T19:18:59.944Z,7.53
2024-04-19T19:21:29.813Z,4.78
2024-04-19T19:24:00.398Z,3.58
2024-04-19T19:26:27.895Z,6.18
2024-04-19T19:28:56.647Z,8.50
2024-04-19T19:31:25.101Z,15.55
2024-04-19T19:33:52.522Z,132.57
2024-04-19T19:36:21.013Z,25.10
2024-04-19T19:38:50.673Z,64.18
2024-04-19T19:41:23.551Z,48.28
2024-04-19T19:43:50.937Z,72.65
2024-04-19T19:46:18.398Z,28.90
2024-04-19T19:48:47.165Z,16.45
2024-04-19T19:51:16.886Z,13.93
2024-04-19T19:53:44.449Z,218.43
2024-04-19T19:56:16.817Z,71.53
2024-04-19T19:58:45.342Z,159.10
2024-04-19T20:01:31.684Z,157.52
2024-04-19T20:04:20.036Z,347.83
2024-04-19T20:06:50.967Z,245.45
2024-04-19T20:09:22.857Z,246.75
2024-04-19T20:11:54.017Z,165.77
2024-04-19T20:14:21.842Z,73.32
2024-04-19T20:16:49.305Z,152.40
2024-04-19T20:19:19.317Z,83.43
2024-04-19T20:21:47.059Z,56.13
2024-04-19T20:24:14.470Z,131.57
2024-04-19T20:26:41.980Z,82.38
2024-04-19T20:29:15.458Z,149.80
2024-04-19T20:31:44.319Z,212.93
2024-04-19T20:34:14.431Z,221.73
2024-04-19T20:36:46.926Z,50.13
2024-04-19T20:39:14.697Z,41.42
2024-04-19T20:41:44.540Z,20.73
2024-04-19T20:44:12.157Z,14.13
2024-04-19T20:46:39.499Z,12.57
2024-04-19T20:49:07.108Z,6.30
2024-04-19T20:51:37.622Z,5.30
2024-04-19T20:54:05.355Z,9.30
2024-04-19T20:56:32.791Z,11.98
2024-04-19T20:59:00.427Z,24.38
2024-04-19T21:01:28.041Z,50.50
2024-04-19T21:03:55.745Z,21.65
2024-04-19T21:06:23.071Z,19.90
2024-04-19T21:08:51.643Z,13.55
2024-04-19T21:11:19.101Z,8.20
2024-04-19T21:13:46.657Z,4.10
2024-04-19T21:16:16.746Z,4.88
2024-04-19T21:18:45.367Z,2.85
2024-04-19T21:21:13.420Z,4.47
2024-04-19T21:23:40.956Z,3.00
2024-04-19T21:26:08.725Z,3.67
2024-04-19T21:28:44.971Z,2.67
2024-04-19T21:31:14.397Z,2.90
2024-04-19T21:33:41.889Z,2.90
2024-04-19T21:36:10.418Z,9.25
2024-04-19T21:38:38.015Z,4.07
2024-04-19T21:41:06.765Z,3.53
2024-04-19T21:43:35.341Z,6.40
2024-04-19T21:46:05.545Z,5.60
2024-04-19T21:48:38.088Z,12.25
2024-04-19T21:51:06.381Z,3.90
2024-04-19T21:53:35.006Z,2.67
2024-04-19T21:56:04.094Z,4.32
2024-04-19T21:58:31.482Z,2.30
2024-04-19T22:00:59.149Z,4.55
2024-04-19T22:03:26.671Z,5.10
2024-04-19T22:05:54.142Z,5.05
2024-04-19T22:08:21.620Z,4.95
2024-04-19T22:10:49.070Z,6.00
2024-04-19T22:13:18.332Z,38.42
2024-04-19T22:15:45.836Z,5.90
2024-04-19T22:18:15.141Z,5.05
2024-04-19T22:20:42.550Z,3.88
2024-04-19T22:23:09.968Z,5.93
2024-04-19T22:25:39.804Z,2.70
2024-04-19T22:28:08.829Z,3.88
2024-04-19T22:30:36.340Z,3.55
2024-04-19T22:33:03.980Z,3.03
2024-04-19T22:35:31.630Z,4.93
2024-04-19T22:37:59.283Z,3.50
2024-04-19T22:40:26.847Z,3.25
2024-04-19T22:42:55.995Z,4.57
2024-04-19T22:45:23.501Z,4.10
2024-04-19T22:47:50.950Z,4.18
2024-04-19T22:50:18.587Z,2.67
2024-04-19T22:52:46.038Z,2.70
2024-04-19T22:55:13.361Z,5.72
2024-04-19T22:57:41.193Z,3.63
2024-04-19T23:00:09.741Z,3.00
2024-04-19T23:02:37.179Z,3.90
2024-04-19T23:05:04.886Z,3.63
2024-04-19T23:07:32.476Z,4.00
2024-04-19T23:10:00.015Z,4.60
2024-04-19T23:12:27.667Z,3.15
2024-04-19T23:14:55.058Z,6.18
2024-04-19T23:17:25.592Z,7.57
2024-04-19T23:19:53.053Z,4.03
2024-04-19T23:22:21.595Z,3.17
2024-04-19T23:24:49.878Z,5.70
2024-04-19T23:27:17.545Z,2.88
2024-04-19T23:29:45.122Z,2.85
2024-04-19T23:32:12.529Z,4.05
2024-04-19T23:34:39.969Z,4.22
2024-04-19T23:37:07.415Z,2.35
2024-04-19T23:39:34.829Z,5.00
2024-04-19T23:42:02.345Z,4.45
2024-04-19T23:44:39.183Z,4.13
2024-04-19T23:47:09.116Z,3.88
2024-04-19T23:49:37.201Z,5.45
2024-04-19T23:52:04.720Z,8.60
2024-04-19T23:54:32.324Z,5.07
2024-04-19T23:56:59.750Z,6.05
2024-04-19T23:59:27.235Z,3.42
